createdAt,value
2022-08-22T00:01:27.814Z,19.00
2022-08-22T00:04:04.990Z,19.10
2022-08-22T00:06:40.000Z,19.00
2022-08-22T00:09:32.290Z,19.00
2022-08-22T00:12:15.403Z,18.90
2022-08-22T00:14:51.002Z,18.80
2022-08-22T00:17:35.569Z,18.80
2022-08-22T00:20:13.151Z,18.70
2022-08-22T00:22:48.897Z,18.70
2022-08-22T00:25:48.968Z,18.70
2022-08-22T00:28:22.303Z,18.80
2022-08-22T00:30:57.361Z,18.90
2022-08-22T00:33:36.300Z,18.80
2022-08-22T00:36:14.067Z,18.70
2022-08-22T00:38:47.811Z,18.60
2022-08-22T00:41:32.587Z,18.50
2022-08-22T00:44:30.852Z,18.50
2022-08-22T00:47:37.287Z,18.40
2022-08-22T00:50:23.293Z,18.40
2022-08-22T00:53:16.439Z,18.30
2022-08-22T00:55:55.111Z,18.30
2022-08-22T00:59:22.906Z,18.30
2022-08-22T01:02:05.082Z,18.20
2022-08-22T01:04:50.925Z,18.20
2022-08-22T01:07:50.941Z,18.20
2022-08-22T01:10:36.535Z,18.10
2022-08-22T01:13:23.880Z,18.10
2022-08-22T01:16:02.028Z,18.10
2022-08-22T01:18:53.285Z,18.20
2022-08-22T01:21:58.395Z,18.20
2022-08-22T01:25:22.493Z,18.20
2022-08-22T01:28:39.009Z,18.10
2022-08-22T01:31:58.998Z,18.20
2022-08-22T01:34:57.985Z,18.20
2022-08-22T01:37:54.539Z,18.20
2022-08-22T01:41:17.206Z,18.20
2022-08-22T01:44:09.239Z,18.20
2022-08-22T01:46:46.616Z,18.20
2022-08-22T01:49:22.036Z,18.20
2022-08-22T01:51:58.499Z,18.10
2022-08-22T01:54:39.912Z,18.10
2022-08-22T01:57:10.232Z,18.10
2022-08-22T01:59:42.401Z,18.20
2022-08-22T02:02:46.954Z,18.10
2022-08-22T02:05:27.609Z,18.00
2022-08-22T02:08:02.388Z,17.90
2022-08-22T02:10:48.166Z,17.90
2022-08-22T02:13:44.425Z,18.00
2022-08-22T02:16:19.069Z,18.10
2022-08-22T02:19:06.687Z,18.10
2022-08-22T02:21:45.421Z,18.10
2022-08-22T02:24:26.420Z,18.20
2022-08-22T02:27:06.161Z,18.20
2022-08-22T02:29:51.382Z,18.20
2022-08-22T02:32:26.227Z,18.30
2022-08-22T02:35:03.660Z,18.20
2022-08-22T02:37:36.784Z,18.20
2022-08-22T02:40:13.450Z,18.20
2022-08-22T02:42:47.071Z,18.20
2022-08-22T02:45:28.233Z,18.10
2022-08-22T02:48:04.481Z,17.90
2022-08-22T02:50:41.795Z,17.90
2022-08-22T02:53:24.305Z,17.90
2022-08-22T02:56:01.430Z,17.90
2022-08-22T02:58:37.711Z,17.90
2022-08-22T03:01:37.721Z,18.00
2022-08-22T03:04:44.871Z,18.10
2022-08-22T03:07:24.177Z,18.00
2022-08-22T03:10:02.123Z,17.90
2022-08-22T03:12:40.107Z,18.10
2022-08-22T03:15:14.174Z,18.00
2022-08-22T03:17:50.802Z,18.10
2022-08-22T03:20:36.421Z,18.00
2022-08-22T03:23:11.016Z,18.00
2022-08-22T03:25:44.874Z,18.10
2022-08-22T03:28:19.850Z,18.10
2022-08-22T03:31:00.666Z,18.10
2022-08-22T03:33:30.799Z,18.10
2022-08-22T03:36:07.537Z,18.10
2022-08-22T03:39:08.831Z,18.10
2022-08-22T03:42:09.771Z,18.10
2022-08-22T03:45:04.211Z,18.20
2022-08-22T03:48:13.085Z,18.20
2022-08-22T03:51:14.585Z,18.20
2022-08-22T03:54:11.333Z,18.20
2022-08-22T03:57:12.828Z,18.30
2022-08-22T04:00:25.698Z,18.30
2022-08-22T04:03:25.523Z,18.20
2022-08-22T04:06:35.351Z,18.20
2022-08-22T04:09:26.821Z,18.30
2022-08-22T04:12:24.120Z,18.30
2022-08-22T04:15:20.652Z,18.40
2022-08-22T04:18:01.999Z,18.50
2022-08-22T04:21:23.849Z,18.40
2022-08-22T04:24:14.683Z,18.50
2022-08-22T04:26:49.164Z,18.60
2022-08-22T04:29:22.352Z,18.40
2022-08-22T04:31:57.177Z,18.60
2022-08-22T04:34:33.414Z,18.50
2022-08-22T04:37:09.999Z,18.50
2022-08-22T04:39:46.347Z,18.40
2022-08-22T04:42:36.909Z,18.40
2022-08-22T04:45:11.379Z,18.40
2022-08-22T04:47:47.222Z,18.40
2022-08-22T04:50:28.911Z,18.30
2022-08-22T04:53:23.384Z,18.40
2022-08-22T04:56:07.140Z,18.50
2022-08-22T04:58:47.066Z,18.60
2022-08-22T05:01:19.128Z,18.70
2022-08-22T05:03:54.402Z,18.50
2022-08-22T05:06:26.487Z,18.50
2022-08-22T05:08:56.887Z,18.40
2022-08-22T05:11:28.836Z,18.50
2022-08-22T05:14:02.245Z,18.80
2022-08-22T05:16:35.370Z,18.70
2022-08-22T05:19:06.778Z,18.50
2022-08-22T05:21:41.203Z,18.60
2022-08-22T05:24:13.035Z,18.40
2022-08-22T05:26:48.310Z,18.70
2022-08-22T05:29:21.068Z,18.50
2022-08-22T05:31:52.665Z,18.70
2022-08-22T05:34:23.823Z,18.60
2022-08-22T05:36:57.119Z,18.70
2022-08-22T05:39:27.861Z,18.70
2022-08-22T05:41:59.761Z,18.60
2022-08-22T05:44:32.306Z,18.80
2022-08-22T05:47:03.551Z,18.70
2022-08-22T05:49:38.997Z,19.00
2022-08-22T05:52:13.584Z,18.90
2022-08-22T05:54:51.479Z,18.90
2022-08-22T05:57:26.519Z,19.30
2022-08-22T06:00:03.291Z,19.30
2022-08-22T06:02:49.586Z,19.20
2022-08-22T06:05:25.792Z,19.30
2022-08-22T06:08:01.027Z,19.20
2022-08-22T06:10:36.839Z,19.30
2022-08-22T06:13:11.880Z,19.30
2022-08-22T06:15:47.779Z,19.70
2022-08-22T06:18:20.841Z,20.00
2022-08-22T06:20:53.726Z,19.80
2022-08-22T06:23:27.533Z,20.20
2022-08-22T06:25:59.175Z,20.20
2022-08-22T06:28:38.201Z,20.40
2022-08-22T06:31:26.924Z,20.40
2022-08-22T06:33:59.941Z,20.10
2022-08-22T06:36:31.990Z,19.80
2022-08-22T06:39:13.289Z,19.70
2022-08-22T06:41:45.938Z,19.90
2022-08-22T06:44:19.970Z,19.70
2022-08-22T06:46:51.511Z,20.30
2022-08-22T06:49:23.224Z,21.00
2022-08-22T06:51:52.947Z,21.40
2022-08-22T06:54:24.053Z,21.80
2022-08-22T06:56:54.412Z,21.80
2022-08-22T06:59:27.264Z,22.00
2022-08-22T07:02:02.845Z,22.00
2022-08-22T07:04:32.369Z,21.90
2022-08-22T07:07:02.547Z,21.90
2022-08-22T07:09:33.328Z,21.90
2022-08-22T07:12:03.977Z,22.20
2022-08-22T07:14:42.862Z,22.30
2022-08-22T07:17:18.583Z,22.30
2022-08-22T07:19:54.950Z,22.40
2022-08-22T07:22:25.600Z,22.40
2022-08-22T07:24:56.815Z,22.40
2022-08-22T07:27:37.502Z,22.50
2022-08-22T07:30:11.249Z,22.60
2022-08-22T07:32:48.487Z,22.70
2022-08-22T07:35:19.805Z,22.80
2022-08-22T07:37:56.358Z,22.80
2022-08-22T07:40:31.902Z,22.80
2022-08-22T07:43:06.429Z,22.80
2022-08-22T07:45:39.831Z,22.80
2022-08-22T07:48:25.978Z,22.80
2022-08-22T07:51:04.628Z,22.90
2022-08-22T07:53:40.575Z,22.90
2022-08-22T07:56:13.576Z,22.90
2022-08-22T07:58:43.915Z,22.90
2022-08-22T08:01:18.903Z,22.90
2022-08-22T08:03:53.822Z,22.90
2022-08-22T08:06:23.344Z,22.90
2022-08-22T08:08:53.113Z,22.90
2022-08-22T08:11:24.546Z,22.90
2022-08-22T08:13:56.100Z,23.00
2022-08-22T08:16:29.581Z,23.00
2022-08-22T08:19:01.003Z,23.00
2022-08-22T08:21:31.888Z,23.00
2022-08-22T08:24:01.741Z,23.00
2022-08-22T08:26:34.110Z,23.00
2022-08-22T08:29:03.610Z,23.00
2022-08-22T08:31:38.060Z,23.00
2022-08-22T08:34:16.761Z,23.10
2022-08-22T08:36:54.364Z,23.10
2022-08-22T08:39:31.075Z,23.10
2022-08-22T08:42:18.705Z,23.10
2022-08-22T08:45:08.709Z,23.10
2022-08-22T08:48:05.206Z,23.20
2022-08-22T08:50:50.327Z,23.20
2022-08-22T08:53:52.929Z,23.20
2022-08-22T08:56:30.593Z,23.30
2022-08-22T08:59:10.364Z,23.30
2022-08-22T09:02:04.616Z,23.20
2022-08-22T09:05:09.077Z,23.30
2022-08-22T09:08:19.154Z,23.30
2022-08-22T09:14:11.875Z,23.20
2022-08-22T09:16:58.399Z,23.20
2022-08-22T09:20:17.593Z,23.20
2022-08-22T09:23:11.034Z,23.30
2022-08-22T09:25:46.168Z,23.40
2022-08-22T09:28:20.792Z,23.40
2022-08-22T09:31:16.903Z,23.40
2022-08-22T09:34:01.463Z,23.50
2022-08-22T09:36:48.070Z,23.50
2022-08-22T09:39:19.208Z,23.50
2022-08-22T09:40:15.394Z,23.20
2022-08-22T09:41:59.720Z,23.60
2022-08-22T09:44:40.014Z,23.60
2022-08-22T09:47:24.613Z,23.70
2022-08-22T09:50:04.953Z,23.70
2022-08-22T09:52:57.870Z,23.70
2022-08-22T09:55:45.498Z,23.90
2022-08-22T09:58:23.713Z,23.90
2022-08-22T10:00:56.981Z,23.90
2022-08-22T10:03:53.710Z,23.90
2022-08-22T10:06:26.044Z,23.90
2022-08-22T10:09:02.899Z,24.00
2022-08-22T10:11:38.824Z,24.10
2022-08-22T10:14:22.308Z,24.20
2022-08-22T10:17:03.720Z,24.20
2022-08-22T10:19:38.238Z,24.30
2022-08-22T10:22:37.805Z,24.30
2022-08-22T10:25:25.814Z,24.30
2022-08-22T10:28:17.857Z,24.20
2022-08-22T10:31:02.620Z,24.20
2022-08-22T10:33:34.909Z,24.30
2022-08-22T10:36:07.850Z,24.20
2022-08-22T10:38:46.788Z,24.30
2022-08-22T10:41:31.525Z,24.30
2022-08-22T10:44:06.584Z,24.30
2022-08-22T10:46:42.189Z,24.30
2022-08-22T10:49:19.601Z,24.40
2022-08-22T10:51:54.503Z,24.40
2022-08-22T10:54:38.152Z,24.40
2022-08-22T10:57:25.979Z,24.50
2022-08-22T11:00:02.757Z,24.50
2022-08-22T11:02:53.180Z,24.60
2022-08-22T11:05:33.743Z,24.60
2022-08-22T11:08:19.285Z,24.60
2022-08-22T11:11:09.474Z,24.60
2022-08-22T11:13:49.731Z,24.60
2022-08-22T11:16:30.402Z,24.60
2022-08-22T11:19:15.874Z,24.70
2022-08-22T11:22:01.635Z,24.70
2022-08-22T11:25:04.830Z,24.80
2022-08-22T11:27:41.032Z,24.80
2022-08-22T11:30:18.505Z,24.80
2022-08-22T11:33:17.706Z,24.80
2022-08-22T11:35:53.971Z,24.80
2022-08-22T11:38:39.666Z,24.70
2022-08-22T11:41:16.567Z,24.70
2022-08-22T11:43:56.695Z,24.70
2022-08-22T11:46:31.201Z,24.70
2022-08-22T11:49:18.859Z,24.70
2022-08-22T11:52:11.632Z,24.80
2022-08-22T11:54:55.918Z,24.80
2022-08-22T11:57:32.480Z,24.80
2022-08-22T12:00:17.106Z,24.70
2022-08-22T12:03:16.456Z,24.70
2022-08-22T12:05:48.467Z,24.80
2022-08-22T12:08:46.398Z,24.80
2022-08-22T12:11:22.548Z,24.80
2022-08-22T12:14:06.201Z,24.90
2022-08-22T12:16:44.943Z,24.90
2022-08-22T12:19:22.943Z,24.90
2022-08-22T12:22:22.279Z,24.90
2022-08-22T12:25:10.267Z,25.00
2022-08-22T12:28:08.737Z,25.00
2022-08-22T12:30:43.625Z,25.00
2022-08-22T12:33:40.967Z,25.00
2022-08-22T12:36:23.048Z,25.00
2022-08-22T12:39:19.531Z,25.00
2022-08-22T12:42:13.775Z,25.10
2022-08-22T12:44:56.682Z,25.00
2022-08-22T12:47:45.045Z,25.00
2022-08-22T12:50:36.609Z,25.00
2022-08-22T12:53:35.156Z,25.00
2022-08-22T12:56:10.285Z,25.00
2022-08-22T12:59:09.176Z,25.00
2022-08-22T13:01:43.336Z,25.00
2022-08-22T13:04:32.789Z,25.10
2022-08-22T13:07:19.023Z,25.00
2022-08-22T13:09:57.717Z,25.00
2022-08-22T13:12:31.868Z,25.00
2022-08-22T13:15:06.336Z,25.00
2022-08-22T13:17:39.568Z,25.00
2022-08-22T13:20:19.633Z,25.00
2022-08-22T13:22:48.451Z,25.10
2022-08-22T13:25:26.650Z,25.00
2022-08-22T13:27:59.134Z,25.10
2022-08-22T13:30:31.667Z,25.10
2022-08-22T13:33:08.571Z,25.20
2022-08-22T13:35:44.777Z,25.20
2022-08-22T13:38:26.043Z,25.20
2022-08-22T13:40:57.750Z,25.20
2022-08-22T13:43:29.855Z,25.10
2022-08-22T13:46:02.083Z,25.20
2022-08-22T13:48:47.804Z,25.20
2022-08-22T13:51:24.697Z,25.10
2022-08-22T13:54:00.747Z,25.10
2022-08-22T13:56:36.388Z,25.10
2022-08-22T13:59:08.310Z,25.20
2022-08-22T14:01:45.071Z,25.20
2022-08-22T14:04:31.950Z,25.10
2022-08-22T14:07:25.415Z,25.10
2022-08-22T14:09:57.589Z,25.10
2022-08-22T14:12:33.640Z,25.10
2022-08-22T14:15:24.418Z,25.10
2022-08-22T14:18:03.287Z,25.00
2022-08-22T14:20:33.760Z,25.00
2022-08-22T14:23:07.687Z,25.00
2022-08-22T14:25:39.952Z,25.00
2022-08-22T14:28:21.772Z,25.00
2022-08-22T14:31:00.778Z,25.00
2022-08-22T14:33:35.061Z,25.00
2022-08-22T14:36:11.420Z,25.00
2022-08-22T14:38:46.573Z,25.10
2022-08-22T14:41:28.464Z,25.40
2022-08-22T14:44:24.104Z,25.30
2022-08-22T14:46:57.565Z,25.40
2022-08-22T14:49:30.485Z,25.20
2022-08-22T14:52:08.864Z,25.10
2022-08-22T14:54:38.809Z,25.00
2022-08-22T14:57:10.554Z,25.00
2022-08-22T14:59:50.061Z,25.10
2022-08-22T15:02:27.836Z,25.10
2022-08-22T15:04:57.309Z,25.10
2022-08-22T15:07:29.528Z,25.10
2022-08-22T15:10:03.567Z,24.90
2022-08-22T15:12:36.986Z,24.70
2022-08-22T15:15:15.399Z,24.30
2022-08-22T15:17:46.068Z,24.50
2022-08-22T15:20:28.537Z,24.60
2022-08-22T15:23:02.165Z,24.60
2022-08-22T15:25:34.379Z,24.40
2022-08-22T15:28:14.164Z,24.40
2022-08-22T15:30:46.639Z,24.40
2022-08-22T15:33:23.739Z,24.40
2022-08-22T15:35:53.705Z,24.40
2022-08-22T15:38:29.778Z,24.40
2022-08-22T15:41:31.390Z,24.60
2022-08-22T15:44:30.741Z,24.50
2022-08-22T15:47:05.374Z,24.60
2022-08-22T15:49:50.450Z,24.40
2022-08-22T15:52:25.830Z,24.30
2022-08-22T15:55:23.857Z,24.00
2022-08-22T15:58:02.531Z,24.10
2022-08-22T16:00:35.055Z,24.10
2022-08-22T16:03:08.978Z,24.10
2022-08-22T16:05:55.215Z,24.40
2022-08-22T16:08:33.051Z,24.30
2022-08-22T16:11:22.537Z,24.10
2022-08-22T16:14:23.773Z,24.00
2022-08-22T16:17:01.783Z,23.90
2022-08-22T16:19:32.283Z,24.00
2022-08-22T16:22:14.966Z,23.80
2022-08-22T16:25:10.295Z,24.20
2022-08-22T16:27:56.660Z,24.20
2022-08-22T16:30:35.139Z,23.80
2022-08-22T16:33:04.695Z,23.80
2022-08-22T16:36:25.120Z,23.70
2022-08-22T16:38:57.937Z,23.60
2022-08-22T16:41:30.690Z,23.60
2022-08-22T16:44:41.719Z,23.90
2022-08-22T16:47:13.822Z,23.90
2022-08-22T16:49:56.971Z,23.90
2022-08-22T16:52:53.149Z,23.90
2022-08-22T16:56:05.276Z,23.80
2022-08-22T16:59:09.897Z,24.00
2022-08-22T17:02:14.170Z,24.20
2022-08-22T17:04:53.869Z,24.00
2022-08-22T17:07:36.822Z,23.70
2022-08-22T17:10:29.740Z,23.60
2022-08-22T17:13:15.706Z,23.70
2022-08-22T17:16:00.866Z,23.80
2022-08-22T17:18:54.513Z,23.60
2022-08-22T17:21:28.460Z,23.40
2022-08-22T17:24:07.638Z,23.40
2022-08-22T17:26:55.156Z,23.50
2022-08-22T17:29:42.467Z,23.30
2022-08-22T17:32:18.500Z,23.20
2022-08-22T17:34:57.133Z,23.20
2022-08-22T17:37:38.693Z,23.10
2022-08-22T17:40:26.234Z,23.00
2022-08-22T17:43:18.032Z,23.20
2022-08-22T17:46:01.675Z,23.30
2022-08-22T17:48:34.877Z,23.60
2022-08-22T17:51:13.991Z,23.50
2022-08-22T17:53:49.216Z,23.60
2022-08-22T17:56:23.518Z,23.90
2022-08-22T17:59:00.690Z,23.60
2022-08-22T18:01:46.637Z,23.70
2022-08-22T18:04:22.740Z,23.70
2022-08-22T18:06:56.456Z,23.80
2022-08-22T18:09:34.167Z,23.70
2022-08-22T18:12:07.726Z,23.70
2022-08-22T18:14:45.841Z,23.60
2022-08-22T18:17:20.276Z,23.50
2022-08-22T18:19:56.056Z,23.70
2022-08-22T18:22:29.668Z,23.70
2022-08-22T18:25:05.102Z,23.40
2022-08-22T18:27:39.200Z,23.30
2022-08-22T18:30:18.287Z,23.40
2022-08-22T18:32:55.496Z,23.70
2022-08-22T18:35:29.023Z,23.80
2022-08-22T18:38:03.697Z,23.70
2022-08-22T18:40:50.942Z,23.60
2022-08-22T18:43:24.046Z,23.30
2022-08-22T18:46:04.161Z,23.20
2022-08-22T18:48:54.261Z,23.10
2022-08-22T18:51:31.075Z,23.00
2022-08-22T18:54:26.892Z,22.90
2022-08-22T18:57:04.048Z,22.90
2022-08-22T18:59:50.314Z,22.90
2022-08-22T19:02:40.647Z,22.90
2022-08-22T19:05:33.844Z,22.90
2022-08-22T19:08:29.497Z,22.90
2022-08-22T19:11:12.832Z,22.90
2022-08-22T19:13:54.560Z,22.80
2022-08-22T19:16:51.729Z,22.70
2022-08-22T19:19:24.235Z,22.60
2022-08-22T19:22:25.153Z,22.70
2022-08-22T19:25:18.235Z,22.70
2022-08-22T19:28:08.900Z,22.70
2022-08-22T19:30:42.367Z,22.70
2022-08-22T19:33:12.788Z,22.70
2022-08-22T19:36:04.199Z,22.60
2022-08-22T19:39:03.541Z,22.30
2022-08-22T19:41:52.531Z,22.10
2022-08-22T19:44:49.385Z,22.20
2022-08-22T19:47:27.981Z,22.40
2022-08-22T19:50:06.601Z,22.70
2022-08-22T19:52:47.964Z,22.70
2022-08-22T19:55:23.961Z,22.70
2022-08-22T19:58:04.519Z,22.70
2022-08-22T20:00:52.854Z,22.60
2022-08-22T20:03:32.743Z,22.60
2022-08-22T20:06:22.142Z,22.60
2022-08-22T20:09:09.723Z,22.70
2022-08-22T20:11:48.375Z,22.60
2022-08-22T20:14:30.104Z,22.60
2022-08-22T20:17:07.583Z,22.60
2022-08-22T20:22:45.487Z,22.70
2022-08-22T20:25:42.454Z,22.70
2022-08-22T20:28:11.286Z,22.60
2022-08-22T20:30:43.067Z,22.60
2022-08-22T20:33:14.849Z,22.60
2022-08-22T20:35:45.213Z,22.60
2022-08-22T20:38:17.658Z,22.60
2022-08-22T20:40:57.289Z,22.50
2022-08-22T20:43:33.257Z,22.60
2022-08-22T20:46:13.139Z,22.60
2022-08-22T20:48:45.310Z,22.60
2022-08-22T20:51:17.330Z,22.60
2022-08-22T20:53:52.551Z,22.60
2022-08-22T20:56:36.694Z,22.60
2022-08-22T20:59:24.206Z,22.50
2022-08-22T21:01:57.868Z,22.50
2022-08-22T21:04:28.693Z,22.50
2022-08-22T21:07:01.685Z,22.50
2022-08-22T21:09:48.286Z,22.50
2022-08-22T21:12:16.802Z,22.50
2022-08-22T21:14:47.022Z,22.50
2022-08-22T21:17:29.097Z,22.50
2022-08-22T21:20:19.285Z,22.40
2022-08-22T21:22:48.151Z,22.40
2022-08-22T21:25:16.501Z,22.40
2022-08-22T21:27:49.381Z,22.40
2022-08-22T21:30:26.609Z,22.50
2022-08-22T21:32:56.396Z,22.50
2022-08-22T21:35:30.747Z,22.50
2022-08-22T21:38:00.531Z,22.50
2022-08-22T21:40:33.763Z,22.40
2022-08-22T21:43:06.398Z,22.40
2022-08-22T21:45:42.643Z,22.40
2022-08-22T21:48:33.250Z,22.30
2022-08-22T21:51:23.147Z,22.30
2022-08-22T21:54:03.714Z,22.20
2022-08-22T21:56:39.904Z,22.20
2022-08-22T21:59:50.798Z,22.20
2022-08-22T22:02:37.124Z,22.20
2022-08-22T22:05:09.585Z,22.10
2022-08-22T22:07:41.253Z,22.10
2022-08-22T22:10:11.769Z,22.10
2022-08-22T22:12:41.106Z,22.10
2022-08-22T22:15:11.153Z,22.10
2022-08-22T22:17:40.862Z,22.00
2022-08-22T22:20:10.145Z,22.00
2022-08-22T22:22:45.796Z,22.00
2022-08-22T22:25:40.346Z,22.00
2022-08-22T22:28:05.395Z,22.00
2022-08-22T22:30:33.680Z,21.90
2022-08-22T22:33:03.170Z,22.00
2022-08-22T22:35:32.253Z,21.90
2022-08-22T22:38:00.902Z,21.90
2022-08-22T22:40:29.628Z,21.80
2022-08-22T22:42:58.371Z,21.80
2022-08-22T22:45:26.669Z,21.80
2022-08-22T22:47:55.197Z,21.80
2022-08-22T22:50:25.329Z,21.70
2022-08-22T22:52:54.177Z,21.70
2022-08-22T22:55:24.136Z,21.70
2022-08-22T22:57:58.610Z,21.70
2022-08-22T23:00:30.982Z,21.60
2022-08-22T23:03:00.457Z,21.60
2022-08-22T23:05:30.905Z,21.60
2022-08-22T23:07:59.663Z,21.60
2022-08-22T23:10:29.421Z,21.50
2022-08-22T23:12:58.983Z,21.50
2022-08-22T23:15:27.720Z,21.50
2022-08-22T23:17:57.526Z,21.40
2022-08-22T23:20:26.058Z,21.40
2022-08-22T23:22:56.019Z,21.30
2022-08-22T23:25:24.293Z,21.30
2022-08-22T23:27:52.783Z,21.30
2022-08-22T23:30:21.551Z,21.20
2022-08-22T23:32:49.878Z,21.20
2022-08-22T23:35:18.111Z,21.20
2022-08-22T23:37:46.411Z,21.10
2022-08-22T23:40:16.147Z,21.10
2022-08-22T23:42:44.886Z,21.10
2022-08-22T23:45:13.274Z,21.10
2022-08-22T23:47:41.612Z,21.00
2022-08-22T23:50:10.334Z,21.00
2022-08-22T23:52:38.573Z,21.00
2022-08-22T23:55:08.039Z,20.90
2022-08-22T23:57:37.822Z,20.90
